createdAt,value
2019-06-26T00:00:24.271Z,101312.98
2019-06-26T00:02:53.641Z,101312.98
2019-06-26T00:05:23.359Z,101315.92
2019-06-26T00:07:52.795Z,101313.71
2019-06-26T00:10:22.594Z,101309.96
2019-06-26T00:12:53.469Z,101314.50
2019-06-26T00:15:22.866Z,101318.21
2019-06-26T00:17:52.348Z,101326.59
2019-06-26T00:20:21.925Z,101318.48
2019-06-26T00:22:51.364Z,101325.13
2019-06-26T00:25:20.732Z,101325.73
2019-06-26T00:27:50.435Z,101317.77
2019-06-26T00:30:20.006Z,101322.95
2019-06-26T00:32:49.375Z,101331.03
2019-06-26T00:35:18.788Z,101332.08
2019-06-26T00:37:48.389Z,101325.27
2019-06-26T00:40:18.222Z,101336.67
2019-06-26T00:42:47.642Z,101332.30
2019-06-26T00:45:17.081Z,101338.42
2019-06-26T00:47:46.492Z,101329.27
2019-06-26T00:50:15.862Z,101326.72
2019-06-26T00:52:45.401Z,101330.32
2019-06-26T00:55:14.769Z,101332.24
2019-06-26T00:57:45.199Z,101331.38
2019-06-26T01:00:15.035Z,101332.13
2019-06-26T01:02:44.671Z,101334.23
2019-06-26T01:05:14.674Z,101341.97
2019-06-26T01:07:44.449Z,101338.87
2019-06-26T01:10:14.306Z,101336.11
2019-06-26T01:12:43.695Z,101341.34
2019-06-26T01:15:13.838Z,101345.48
2019-06-26T01:17:43.517Z,101346.20
2019-06-26T01:20:13.411Z,101348.30
2019-06-26T01:22:42.835Z,101348.18
2019-06-26T01:25:13.137Z,101343.05
2019-06-26T01:27:42.659Z,101343.05
2019-06-26T01:30:20.401Z,101346.56
2019-06-26T01:32:49.771Z,101349.50
2019-06-26T01:35:19.552Z,101350.04
2019-06-26T01:37:48.970Z,101343.53
2019-06-26T01:40:18.846Z,101351.23
2019-06-26T01:42:48.264Z,101351.23
2019-06-26T01:45:17.856Z,101349.40
2019-06-26T01:47:47.821Z,101360.44
2019-06-26T01:50:17.624Z,101362.15
2019-06-26T01:52:47.045Z,101365.63
2019-06-26T01:55:16.741Z,101359.77
2019-06-26T01:57:46.141Z,101366.01
2019-06-26T02:00:16.443Z,101374.38
2019-06-26T02:02:45.844Z,101375.63
2019-06-26T02:05:15.513Z,101379.61
2019-06-26T02:07:44.934Z,101388.80
2019-06-26T02:10:15.949Z,101394.73
2019-06-26T02:12:46.763Z,101395.92
2019-06-26T02:15:16.268Z,101399.43
2019-06-26T02:17:45.667Z,101400.81
2019-06-26T02:20:15.040Z,101401.31
2019-06-26T02:22:44.587Z,101404.61
2019-06-26T02:25:15.730Z,101403.74
2019-06-26T02:27:45.178Z,101408.29
2019-06-26T02:30:15.106Z,101406.58
2019-06-26T02:32:44.700Z,101409.00
2019-06-26T02:35:14.238Z,101409.00
2019-06-26T02:37:43.658Z,101407.42
2019-06-26T02:40:13.169Z,101406.58
2019-06-26T02:42:42.939Z,101403.70
2019-06-26T02:45:13.890Z,101410.77
2019-06-26T02:47:44.125Z,101410.46
2019-06-26T02:50:13.789Z,101409.25
2019-06-26T02:52:43.190Z,101412.72
2019-06-26T02:55:12.991Z,101414.39
2019-06-26T02:57:42.733Z,101414.39
2019-06-26T03:00:13.145Z,101413.59
2019-06-26T03:02:43.002Z,101415.88
2019-06-26T03:05:13.094Z,101422.95
2019-06-26T03:07:42.704Z,101421.98
2019-06-26T03:10:13.354Z,101425.64
2019-06-26T03:12:42.899Z,101427.19
2019-06-26T03:15:13.126Z,101431.33
2019-06-26T03:17:54.793Z,101422.66
2019-06-26T03:20:14.166Z,101438.76
2019-06-26T03:22:43.839Z,101442.02
2019-06-26T03:25:13.262Z,101441.55
2019-06-26T03:27:42.834Z,101447.14
2019-06-26T03:30:13.534Z,101451.14
2019-06-26T03:32:42.917Z,101447.04
2019-06-26T03:35:13.124Z,101449.39
2019-06-26T03:37:43.316Z,101449.39
2019-06-26T03:40:13.305Z,101462.84
2019-06-26T03:42:42.883Z,101459.88
2019-06-26T03:45:25.145Z,101466.27
2019-06-26T03:47:45.834Z,101469.39
2019-06-26T03:50:16.352Z,101467.11
2019-06-26T03:52:45.771Z,101470.40
2019-06-26T03:55:15.218Z,101475.57
2019-06-26T03:57:44.968Z,101473.66
2019-06-26T04:00:15.975Z,101476.41
2019-06-26T04:02:45.436Z,101477.99
2019-06-26T04:05:15.136Z,101480.34
2019-06-26T04:07:44.774Z,101485.83
2019-06-26T04:10:15.058Z,101489.05
2019-06-26T04:12:44.458Z,101485.59
2019-06-26T04:15:14.193Z,101489.66
2019-06-26T04:17:43.896Z,101488.75
2019-06-26T04:20:13.385Z,101489.76
2019-06-26T04:22:43.101Z,101495.03
2019-06-26T04:25:13.303Z,101498.02
2019-06-26T04:27:43.020Z,101498.02
2019-06-26T04:30:12.814Z,101492.91
2019-06-26T04:32:42.191Z,101492.79
2019-06-26T04:35:13.514Z,101498.77
2019-06-26T04:37:42.907Z,101511.48
2019-06-26T04:40:13.377Z,101502.33
2019-06-26T04:42:43.028Z,101513.83
2019-06-26T04:45:13.594Z,101516.84
2019-06-26T04:47:43.007Z,101510.08
2019-06-26T04:50:15.181Z,101511.67
2019-06-26T04:52:44.910Z,101511.67
2019-06-26T04:55:14.649Z,101524.88
2019-06-26T04:57:44.053Z,101520.50
2019-06-26T05:00:15.008Z,101520.58
2019-06-26T05:02:50.544Z,101522.67
2019-06-26T05:05:20.233Z,101528.60
2019-06-26T05:07:50.000Z,101523.79
2019-06-26T05:10:19.368Z,101529.33
2019-06-26T05:12:49.097Z,101531.58
2019-06-26T05:15:18.696Z,101533.20
2019-06-26T05:17:48.164Z,101533.27
2019-06-26T05:20:18.466Z,101534.00
2019-06-26T05:22:47.912Z,101536.91
2019-06-26T05:25:19.481Z,101541.23
2019-06-26T05:27:49.176Z,101543.77
2019-06-26T05:30:18.593Z,101542.95
2019-06-26T05:32:48.013Z,101545.98
2019-06-26T05:35:17.557Z,101547.75
2019-06-26T05:37:46.941Z,101551.52
2019-06-26T05:40:17.002Z,101558.50
2019-06-26T05:42:46.433Z,101562.42
2019-06-26T05:45:16.430Z,101567.58
2019-06-26T05:47:46.098Z,101576.98
2019-06-26T05:50:16.826Z,101578.71
2019-06-26T05:52:46.246Z,101579.34
2019-06-26T05:55:15.728Z,101574.91
2019-06-26T05:57:48.316Z,101566.54
2019-06-26T06:00:17.988Z,101574.99
2019-06-26T06:02:47.387Z,101577.28
2019-06-26T06:05:17.118Z,101581.55
2019-06-26T06:07:46.546Z,101584.13
2019-06-26T06:10:16.575Z,101591.60
2019-06-26T06:12:46.280Z,101583.14
2019-06-26T06:15:17.725Z,101585.50
2019-06-26T06:17:47.093Z,101592.86
2019-06-26T06:20:19.749Z,101595.57
2019-06-26T06:22:49.168Z,101598.14
2019-06-26T06:25:18.857Z,101590.80
2019-06-26T06:27:48.270Z,101600.70
2019-06-26T06:30:17.735Z,101608.16
2019-06-26T06:32:47.186Z,101612.11
2019-06-26T06:35:16.630Z,101616.80
2019-06-26T06:37:46.172Z,101612.03
2019-06-26T06:40:15.705Z,101620.69
2019-06-26T06:42:45.379Z,101624.01
2019-06-26T06:45:14.803Z,101626.15
2019-06-26T06:47:44.270Z,101626.67
2019-06-26T06:50:13.777Z,101635.86
2019-06-26T06:52:43.270Z,101625.28
2019-06-26T06:55:13.682Z,101629.79
2019-06-26T06:57:43.627Z,101628.19
2019-06-26T07:00:14.413Z,101632.67
2019-06-26T07:02:43.987Z,101632.55
2019-06-26T07:05:13.657Z,101638.30
2019-06-26T07:07:43.294Z,101638.95
2019-06-26T07:10:13.602Z,101635.55
2019-06-26T07:12:43.016Z,101638.33
2019-06-26T07:15:14.273Z,101636.28
2019-06-26T07:17:43.761Z,101638.61
2019-06-26T07:20:13.814Z,101641.66
2019-06-26T07:22:43.310Z,101636.97
2019-06-26T07:25:13.936Z,101638.08
2019-06-26T07:27:43.467Z,101638.08
2019-06-26T07:30:14.110Z,101646.81
2019-06-26T07:32:43.510Z,101654.11
2019-06-26T07:35:14.135Z,101656.01
2019-06-26T07:37:43.505Z,101657.42
2019-06-26T07:40:14.060Z,101663.08
2019-06-26T07:42:44.614Z,101662.27
2019-06-26T07:45:14.419Z,101671.59
2019-06-26T07:47:44.427Z,101672.52
2019-06-26T07:50:14.118Z,101679.21
2019-06-26T07:52:43.523Z,101683.78
2019-06-26T07:55:13.808Z,101691.71
2019-06-26T07:57:43.554Z,101690.20
2019-06-26T08:00:14.431Z,101692.27
2019-06-26T08:02:43.907Z,101698.00
2019-06-26T08:05:14.582Z,101696.80
2019-06-26T08:07:43.998Z,101694.45
2019-06-26T08:10:14.992Z,101699.59
2019-06-26T08:12:44.557Z,101693.62
2019-06-26T08:15:14.040Z,101696.75
2019-06-26T08:17:59.208Z,101705.56
2019-06-26T08:20:16.398Z,101701.64
2019-06-26T08:22:45.771Z,101710.96
2019-06-26T08:25:15.976Z,101700.67
2019-06-26T08:27:45.608Z,101693.84
2019-06-26T08:30:15.998Z,101704.59
2019-06-26T08:32:45.501Z,101698.45
2019-06-26T08:35:15.937Z,101699.47
2019-06-26T08:37:45.603Z,101704.03
2019-06-26T08:40:17.680Z,101700.93
2019-06-26T08:42:47.037Z,101697.52
2019-06-26T08:45:16.907Z,101704.10
2019-06-26T08:47:46.495Z,101710.14
2019-06-26T08:50:16.239Z,101704.17
2019-06-26T08:52:45.613Z,101710.52
2019-06-26T08:55:15.402Z,101716.23
2019-06-26T08:57:44.772Z,101717.38
2019-06-26T09:00:16.073Z,101713.77
2019-06-26T09:02:45.523Z,101717.78
2019-06-26T09:05:15.240Z,101716.81
2019-06-26T09:07:44.628Z,101715.36
2019-06-26T09:10:14.158Z,101725.50
2019-06-26T09:12:43.607Z,101723.48
2019-06-26T09:15:14.136Z,101719.91
2019-06-26T09:17:43.569Z,101720.69
2019-06-26T09:20:15.844Z,101732.15
2019-06-26T09:22:45.564Z,101734.63
2019-06-26T09:25:22.035Z,101739.64
2019-06-26T09:27:46.629Z,101738.77
2019-06-26T09:30:16.121Z,101739.13
2019-06-26T09:32:45.614Z,101734.77
2019-06-26T09:35:15.033Z,101735.97
2019-06-26T09:37:44.579Z,101737.80
2019-06-26T09:40:14.078Z,101730.58
2019-06-26T09:42:43.683Z,101743.88
2019-06-26T09:45:14.159Z,101744.53
2019-06-26T09:47:43.908Z,101751.80
2019-06-26T09:50:14.081Z,101742.59
2019-06-26T09:52:43.663Z,101747.83
2019-06-26T09:55:15.508Z,101750.63
2019-06-26T09:57:44.880Z,101752.11
2019-06-26T10:00:19.932Z,101752.80
2019-06-26T10:02:49.636Z,101756.20
2019-06-26T10:05:19.211Z,101756.77
2019-06-26T10:07:48.689Z,101760.42
2019-06-26T10:10:18.321Z,101755.08
2019-06-26T10:12:47.876Z,101759.98
2019-06-26T10:15:18.041Z,101765.00
2019-06-26T10:17:47.753Z,101762.12
2019-06-26T10:20:17.205Z,101765.55
2019-06-26T10:22:46.727Z,101759.73
2019-06-26T10:25:17.050Z,101770.73
2019-06-26T10:27:46.449Z,101762.86
2019-06-26T10:30:16.290Z,101762.86
2019-06-26T10:32:46.782Z,101785.28
2019-06-26T10:35:16.526Z,101774.45
2019-06-26T10:37:45.941Z,101781.53
2019-06-26T10:40:16.554Z,101778.72
2019-06-26T10:42:46.241Z,101780.42
2019-06-26T10:45:15.970Z,101782.73
2019-06-26T10:47:45.372Z,101783.46
2019-06-26T10:50:15.094Z,101789.30
2019-06-26T10:52:44.741Z,101793.88
2019-06-26T10:55:14.482Z,101772.45
2019-06-26T10:57:43.942Z,101782.59
2019-06-26T11:00:14.505Z,101785.06
2019-06-26T11:02:43.990Z,101777.28
2019-06-26T11:05:15.012Z,101772.43
2019-06-26T11:07:44.787Z,101772.80
2019-06-26T11:10:14.560Z,101763.99
2019-06-26T11:12:43.965Z,101758.72
2019-06-26T11:15:14.630Z,101754.30
2019-06-26T11:17:44.041Z,101760.23
2019-06-26T11:20:14.498Z,101766.66
2019-06-26T11:22:43.884Z,101766.86
2019-06-26T11:25:14.415Z,101771.56
2019-06-26T11:27:43.920Z,101771.56
2019-06-26T11:30:14.859Z,101770.96
2019-06-26T11:32:44.249Z,101784.81
2019-06-26T11:35:16.209Z,101781.55
2019-06-26T11:37:45.894Z,101789.50
2019-06-26T11:40:16.649Z,101798.27
2019-06-26T11:42:46.238Z,101796.41
2019-06-26T11:45:16.116Z,101790.07
2019-06-26T11:47:46.131Z,101791.87
2019-06-26T11:50:17.399Z,101791.23
2019-06-26T11:52:46.914Z,101793.21
2019-06-26T11:55:16.909Z,101792.87
2019-06-26T11:57:46.428Z,101793.73
2019-06-26T12:00:19.178Z,101795.31
2019-06-26T12:02:48.613Z,101793.12
2019-06-26T12:05:18.645Z,101802.91
2019-06-26T12:07:48.010Z,101801.06
2019-06-26T12:10:17.931Z,101794.38
2019-06-26T12:12:47.359Z,101782.67
2019-06-26T12:15:19.483Z,101786.52
2019-06-26T12:17:49.249Z,101793.42
2019-06-26T12:20:19.827Z,101786.77
2019-06-26T12:22:49.476Z,101783.50
2019-06-26T12:25:19.270Z,101792.09
2019-06-26T12:28:02.288Z,101791.80
2019-06-26T12:30:32.127Z,101799.64
2019-06-26T12:33:03.653Z,101788.11
2019-06-26T12:35:32.619Z,101779.39
2019-06-26T12:38:02.121Z,101783.27
2019-06-26T12:40:31.620Z,101783.27
2019-06-26T12:43:01.222Z,101791.92
2019-06-26T12:45:30.634Z,101786.81
2019-06-26T12:48:00.137Z,101777.59
2019-06-26T12:50:35.525Z,101776.61
2019-06-26T12:53:00.688Z,101776.02
2019-06-26T12:55:32.917Z,101770.25
2019-06-26T12:58:12.661Z,101768.87
2019-06-26T13:00:32.619Z,101779.60
2019-06-26T13:03:02.234Z,101780.16
2019-06-26T13:05:31.651Z,101781.84
2019-06-26T13:08:01.107Z,101779.16
2019-06-26T13:10:30.569Z,101779.16
2019-06-26T13:13:00.263Z,101777.66
2019-06-26T13:15:29.637Z,101784.66
2019-06-26T13:18:01.433Z,101779.69
2019-06-26T13:20:30.528Z,101777.66
2019-06-26T13:23:00.214Z,101782.63
2019-06-26T13:25:29.647Z,101782.63
2019-06-26T13:27:59.375Z,101783.12
2019-06-26T13:30:37.285Z,101784.38
2019-06-26T13:33:07.107Z,101800.38
2019-06-26T13:35:36.473Z,101802.80
2019-06-26T13:38:06.264Z,101801.22
2019-06-26T13:40:35.626Z,101801.22
2019-06-26T13:43:05.394Z,101799.75
2019-06-26T13:45:34.751Z,101799.75
2019-06-26T13:48:04.276Z,101809.39
2019-06-26T13:50:33.931Z,101809.39
2019-06-26T13:53:03.302Z,101812.75
2019-06-26T13:55:33.253Z,101809.72
2019-06-26T13:58:02.645Z,101828.38
2019-06-26T14:00:32.316Z,101824.77
2019-06-26T14:03:01.771Z,101824.77
2019-06-26T14:05:31.301Z,101829.61
2019-06-26T14:08:00.703Z,101837.17
2019-06-26T14:10:30.468Z,101829.68
2019-06-26T14:12:59.875Z,101833.55
2019-06-26T14:15:29.617Z,101836.92
2019-06-26T14:17:59.495Z,101830.13
2019-06-26T14:20:28.917Z,101835.54
2019-06-26T14:22:58.308Z,101838.89
2019-06-26T14:25:28.045Z,101838.70
2019-06-26T14:27:57.404Z,101839.94
2019-06-26T14:30:28.080Z,101836.34
2019-06-26T14:32:57.575Z,101834.28
2019-06-26T14:35:27.267Z,101847.09
2019-06-26T14:37:56.671Z,101851.67
2019-06-26T14:40:26.584Z,101851.14
2019-06-26T14:42:55.969Z,101846.19
2019-06-26T14:45:25.640Z,101849.02
2019-06-26T14:47:55.393Z,101845.61
2019-06-26T14:50:24.749Z,101851.56
2019-06-26T14:52:54.442Z,101849.97
2019-06-26T14:55:23.820Z,101864.21
2019-06-26T14:57:53.497Z,101859.45
2019-06-26T15:00:23.536Z,101860.44
2019-06-26T15:02:52.985Z,101855.81
2019-06-26T15:05:22.630Z,101851.36
2019-06-26T15:07:52.394Z,101849.75
2019-06-26T15:10:22.451Z,101846.14
2019-06-26T15:12:51.862Z,101852.45
2019-06-26T15:15:21.679Z,101848.58
2019-06-26T15:17:51.416Z,101848.58
2019-06-26T15:20:20.895Z,101849.88
2019-06-26T15:22:50.412Z,101847.49
2019-06-26T15:25:20.126Z,101853.83
2019-06-26T15:27:49.850Z,101850.61
2019-06-26T15:30:20.895Z,101847.01
2019-06-26T15:32:50.473Z,101841.75
2019-06-26T15:35:19.832Z,101842.81
2019-06-26T15:37:49.460Z,101844.00
2019-06-26T15:40:18.924Z,101850.03
2019-06-26T15:42:49.169Z,101847.16
2019-06-26T15:45:20.824Z,101841.85
2019-06-26T15:47:49.839Z,101854.70
2019-06-26T15:50:19.507Z,101860.66
2019-06-26T15:52:48.955Z,101856.85
2019-06-26T15:55:18.757Z,101859.67
2019-06-26T15:57:48.118Z,101859.91
2019-06-26T16:00:17.961Z,101864.31
2019-06-26T16:02:47.475Z,101865.03
2019-06-26T16:05:16.960Z,101864.61
2019-06-26T16:07:46.435Z,101868.05
2019-06-26T16:10:16.851Z,101861.55
2019-06-26T16:12:46.560Z,101860.52
2019-06-26T16:15:16.175Z,101862.91
2019-06-26T16:17:58.930Z,101865.73
2019-06-26T16:20:28.732Z,101873.69
2019-06-26T16:22:58.538Z,101868.48
2019-06-26T16:25:28.232Z,101862.66
2019-06-26T16:28:05.189Z,101865.73
2019-06-26T16:30:29.019Z,101863.09
2019-06-26T16:33:04.247Z,101865.19
2019-06-26T16:35:33.656Z,101866.91
2019-06-26T16:38:03.119Z,101866.81
2019-06-26T16:40:32.478Z,101875.25
2019-06-26T16:43:01.903Z,101876.88
2019-06-26T16:45:31.584Z,101870.82
2019-06-26T16:48:00.973Z,101880.94
2019-06-26T16:50:30.654Z,101881.92
2019-06-26T16:53:00.060Z,101887.72
2019-06-26T16:55:29.835Z,101887.42
2019-06-26T16:57:59.186Z,101878.50
2019-06-26T17:00:29.218Z,101876.89
2019-06-26T17:02:58.605Z,101883.20
2019-06-26T17:05:27.992Z,101884.69
2019-06-26T17:07:57.556Z,101902.03
2019-06-26T17:10:27.305Z,101893.97
2019-06-26T17:12:56.767Z,101892.83
2019-06-26T17:15:26.355Z,101904.08
2019-06-26T17:17:55.825Z,101901.63
2019-06-26T17:20:25.203Z,101909.19
2019-06-26T17:23:04.943Z,101911.64
2019-06-26T17:25:25.880Z,101905.03
2019-06-26T17:27:55.243Z,101914.22
2019-06-26T17:30:24.846Z,101923.20
2019-06-26T17:32:54.280Z,101923.20
2019-06-26T17:35:24.012Z,101929.01
2019-06-26T17:37:53.665Z,101925.45
2019-06-26T17:40:23.035Z,101930.44
2019-06-26T17:42:52.727Z,101933.70
2019-06-26T17:45:22.197Z,101927.12
2019-06-26T17:47:51.690Z,101930.92
2019-06-26T17:50:21.159Z,101932.38
2019-06-26T17:52:50.642Z,101933.50
2019-06-26T17:55:20.315Z,101943.59
2019-06-26T17:57:49.870Z,101947.98
2019-06-26T18:00:22.461Z,101943.38
2019-06-26T18:02:51.833Z,101943.20
2019-06-26T18:05:21.338Z,101948.56
2019-06-26T18:07:50.698Z,101955.55
2019-06-26T18:10:20.395Z,101952.88
2019-06-26T18:12:49.863Z,101968.63
2019-06-26T18:15:19.247Z,101960.85
2019-06-26T18:17:48.883Z,101967.47
2019-06-26T18:20:18.724Z,101970.40
2019-06-26T18:22:48.132Z,101979.26
2019-06-26T18:25:17.846Z,101982.08
2019-06-26T18:27:47.310Z,101980.23
2019-06-26T18:30:17.118Z,101983.09
2019-06-26T18:32:46.947Z,101983.09
2019-06-26T18:35:16.303Z,101988.17
2019-06-26T18:37:45.765Z,101986.08
2019-06-26T18:40:15.366Z,101999.53
2019-06-26T18:42:45.041Z,101998.64
2019-06-26T18:45:15.184Z,102009.78
2019-06-26T18:47:44.851Z,102015.53
2019-06-26T18:50:15.152Z,102007.66
2019-06-26T18:52:44.807Z,102009.70
2019-06-26T18:55:15.171Z,102012.08
2019-06-26T18:57:44.591Z,102020.64
2019-06-26T19:00:15.498Z,102020.64
2019-06-26T19:02:44.882Z,102023.42
2019-06-26T19:05:15.224Z,102031.42
2019-06-26T19:07:44.840Z,102036.51
2019-06-26T19:10:15.295Z,102039.91
2019-06-26T19:12:44.980Z,102037.71
2019-06-26T19:15:15.273Z,102044.65
2019-06-26T19:17:44.945Z,102044.65
2019-06-26T19:20:15.588Z,102051.96
2019-06-26T19:22:47.458Z,102051.33
2019-06-26T19:25:16.518Z,102058.94
2019-06-26T19:27:47.886Z,102063.79
2019-06-26T19:30:20.268Z,102061.21
2019-06-26T19:32:49.922Z,102070.00
2019-06-26T19:35:20.273Z,102072.25
2019-06-26T19:37:49.980Z,102078.44
2019-06-26T19:40:19.464Z,102078.80
2019-06-26T19:42:49.129Z,102084.13
2019-06-26T19:45:18.870Z,102087.41
2019-06-26T19:47:48.257Z,102085.47
2019-06-26T19:50:18.794Z,102090.27
2019-06-26T19:52:48.207Z,102095.06
2019-06-26T19:55:18.622Z,102096.74
2019-06-26T19:57:48.079Z,102099.59
2019-06-26T20:00:18.432Z,102108.27
2019-06-26T20:02:48.033Z,102115.94
2019-06-26T20:05:17.462Z,102110.93
2019-06-26T20:07:46.926Z,102116.47
2019-06-26T20:10:16.855Z,102111.94
2019-06-26T20:12:46.370Z,102117.25
2019-06-26T20:15:16.090Z,102116.33
2019-06-26T20:17:45.485Z,102121.22
2019-06-26T20:20:15.385Z,102124.87
2019-06-26T20:22:45.034Z,102117.62
2019-06-26T20:25:15.619Z,102126.63
2019-06-26T20:27:45.117Z,102126.02
2019-06-26T20:30:15.410Z,102121.74
2019-06-26T20:32:45.041Z,102121.37
2019-06-26T20:35:15.301Z,102131.55
2019-06-26T20:37:44.689Z,102136.38
2019-06-26T20:40:15.584Z,102138.55
2019-06-26T20:42:45.072Z,102146.52
2019-06-26T20:45:15.363Z,102143.51
2019-06-26T20:47:45.970Z,102143.36
2019-06-26T20:50:15.467Z,102154.01
2019-06-26T20:52:45.090Z,102138.54
2019-06-26T20:55:14.452Z,102154.81
2019-06-26T20:57:44.104Z,102163.12
2019-06-26T21:00:13.536Z,102159.09
2019-06-26T21:02:43.148Z,102159.09
2019-06-26T21:05:12.543Z,102167.02
2019-06-26T21:07:42.287Z,102170.80
2019-06-26T21:10:12.047Z,102164.07
2019-06-26T21:12:41.432Z,102163.91
2019-06-26T21:15:11.135Z,102168.38
2019-06-26T21:17:40.767Z,102169.13
2019-06-26T21:20:10.175Z,102167.24
2019-06-26T21:22:39.539Z,102170.50
2019-06-26T21:25:18.344Z,102169.50
2019-06-26T21:27:42.112Z,102166.11
2019-06-26T21:30:12.777Z,102172.25
2019-06-26T21:32:42.334Z,102174.74
2019-06-26T21:35:12.047Z,102175.01
2019-06-26T21:37:41.464Z,102171.64
2019-06-26T21:40:11.340Z,102171.02
2019-06-26T21:42:41.138Z,102174.12
2019-06-26T21:45:10.593Z,102170.53
2019-06-26T21:47:40.247Z,102163.68
2019-06-26T21:50:11.282Z,102166.30
2019-06-26T21:52:40.686Z,102168.02
2019-06-26T21:55:10.334Z,102171.82
2019-06-26T21:57:57.393Z,102175.27
2019-06-26T22:00:44.429Z,102180.11
2019-06-26T22:03:31.526Z,102174.74
2019-06-26T22:06:15.649Z,102172.44
2019-06-26T22:08:55.659Z,102177.41
2019-06-26T22:11:25.231Z,102183.61
2019-06-26T22:13:54.648Z,102178.36
2019-06-26T22:16:24.568Z,102179.42
2019-06-26T22:18:55.486Z,102181.12
2019-06-26T22:21:24.941Z,102184.95
2019-06-26T22:23:54.446Z,102184.70
2019-06-26T22:26:24.287Z,102185.06
2019-06-26T22:28:53.929Z,102180.06
2019-06-26T22:31:23.659Z,102186.47
2019-06-26T22:33:53.351Z,102186.84
2019-06-26T22:36:22.766Z,102184.59
2019-06-26T22:38:52.296Z,102187.98
2019-06-26T22:41:21.669Z,102183.23
2019-06-26T22:43:51.219Z,102192.53
2019-06-26T22:46:20.927Z,102191.42
2019-06-26T22:48:50.379Z,102199.76
2019-06-26T22:51:19.877Z,102207.78
2019-06-26T22:53:49.298Z,102199.63
2019-06-26T22:56:18.698Z,102201.95
2019-06-26T22:58:48.293Z,102196.72
2019-06-26T23:01:17.792Z,102201.00
2019-06-26T23:03:47.378Z,102211.66
2019-06-26T23:06:16.928Z,102211.66
2019-06-26T23:08:46.381Z,102204.58
2019-06-26T23:11:15.818Z,102204.40
2019-06-26T23:13:45.337Z,102203.63
2019-06-26T23:16:15.615Z,102199.05
2019-06-26T23:18:45.049Z,102213.18
2019-06-26T23:21:15.796Z,102215.20
2019-06-26T23:23:45.350Z,102212.22
2019-06-26T23:26:24.082Z,102212.22
2019-06-26T23:28:46.806Z,102207.27
2019-06-26T23:31:16.540Z,102199.59
2019-06-26T23:33:45.918Z,102196.91
2019-06-26T23:36:15.827Z,102200.66
2019-06-26T23:38:46.466Z,102205.91
2019-06-26T23:41:18.089Z,102205.08
2019-06-26T23:43:47.288Z,102208.33
2019-06-26T23:46:16.995Z,102211.42
2019-06-26T23:48:46.598Z,102219.98
2019-06-26T23:51:15.959Z,102211.28
2019-06-26T23:53:45.467Z,102209.66
2019-06-26T23:56:15.763Z,102218.22
2019-06-26T23:58:45.427Z,102213.38
